createdAt,value
2018-07-19T00:00:24.339Z,83.59
2018-07-19T00:01:24.338Z,83.20
2018-07-19T00:02:24.332Z,83.20
2018-07-19T00:03:24.331Z,83.20
2018-07-19T00:04:24.338Z,83.40
2018-07-19T00:05:24.334Z,83.20
2018-07-19T00:06:24.329Z,83.97
2018-07-19T00:07:24.327Z,83.97
2018-07-19T00:08:24.327Z,83.20
2018-07-19T00:09:24.324Z,83.20
2018-07-19T00:10:24.329Z,84.03
2018-07-19T00:11:24.326Z,83.93
2018-07-19T00:12:24.327Z,83.93
2018-07-19T00:13:24.324Z,83.93
2018-07-19T00:14:24.322Z,83.74
2018-07-19T00:15:24.318Z,83.64
2018-07-19T00:16:24.317Z,83.54
2018-07-19T00:17:24.316Z,84.31
2018-07-19T00:18:24.320Z,83.84
2018-07-19T00:19:24.318Z,84.22
2018-07-19T00:20:24.316Z,83.89
2018-07-19T00:21:24.313Z,83.98
2018-07-19T00:22:24.315Z,84.56
2018-07-19T00:23:24.315Z,84.08
2018-07-19T00:24:24.320Z,84.85
2018-07-19T00:25:24.310Z,84.66
2018-07-19T00:26:24.305Z,84.75
2018-07-19T00:27:24.305Z,84.95
2018-07-19T00:28:24.304Z,84.66
2018-07-19T00:29:24.300Z,84.95
2018-07-19T00:30:24.312Z,84.75
2018-07-19T00:31:24.304Z,84.66
2018-07-19T00:32:24.302Z,84.85
2018-07-19T00:33:24.305Z,84.95
2018-07-19T00:34:24.294Z,84.85
2018-07-19T00:35:24.293Z,84.47
2018-07-19T00:36:24.297Z,84.95
2018-07-19T00:37:24.294Z,85.24
2018-07-19T00:38:24.289Z,85.42
2018-07-19T00:39:24.288Z,84.85
2018-07-19T00:40:24.289Z,84.75
2018-07-19T00:41:24.286Z,84.37
2018-07-19T00:42:24.289Z,84.66
2018-07-19T00:43:24.289Z,84.75
2018-07-19T00:44:24.287Z,84.56
2018-07-19T00:45:24.286Z,84.47
2018-07-19T00:46:24.283Z,84.85
2018-07-19T00:47:24.278Z,85.71
2018-07-19T00:48:24.277Z,85.52
2018-07-19T00:49:24.273Z,85.42
2018-07-19T00:50:24.277Z,84.95
2018-07-19T00:51:24.277Z,84.95
2018-07-19T00:52:24.272Z,84.66
2018-07-19T00:53:24.267Z,84.95
2018-07-19T00:54:24.271Z,84.37
2018-07-19T00:55:24.269Z,84.85
2018-07-19T00:56:24.269Z,84.47
2018-07-19T00:57:24.266Z,84.47
2018-07-19T00:58:24.261Z,84.75
2018-07-19T00:59:24.258Z,84.75
2018-07-19T01:00:24.258Z,84.37
2018-07-19T01:01:24.254Z,84.37
2018-07-19T01:02:24.259Z,84.56
2018-07-19T01:03:24.257Z,84.85
2018-07-19T01:04:24.255Z,84.66
2018-07-19T01:05:24.253Z,84.95
2018-07-19T01:06:24.247Z,84.47
2018-07-19T01:07:24.245Z,84.56
2018-07-19T01:08:24.248Z,84.75
2018-07-19T01:09:24.246Z,84.95
2018-07-19T01:10:24.240Z,85.04
2018-07-19T01:11:24.240Z,85.14
2018-07-19T01:12:24.239Z,85.14
2018-07-19T01:13:24.237Z,85.33
2018-07-19T01:14:24.241Z,85.33
2018-07-19T01:15:24.237Z,85.28
2018-07-19T01:16:24.235Z,85.77
2018-07-19T01:17:24.236Z,85.77
2018-07-19T01:18:24.227Z,85.10
2018-07-19T01:19:24.227Z,85.48
2018-07-19T01:20:24.225Z,85.77
2018-07-19T01:21:24.221Z,85.48
2018-07-19T01:22:24.229Z,85.38
2018-07-19T01:23:24.223Z,85.58
2018-07-19T01:24:24.221Z,85.67
2018-07-19T01:25:24.216Z,85.48
2018-07-19T01:26:24.218Z,86.15
2018-07-19T01:27:24.217Z,85.77
2018-07-19T01:28:24.218Z,86.05
2018-07-19T01:29:24.213Z,85.86
2018-07-19T01:30:24.206Z,85.67
2018-07-19T01:31:24.205Z,85.77
2018-07-19T01:32:24.208Z,86.05
2018-07-19T01:33:24.204Z,85.96
2018-07-19T01:34:24.200Z,85.58
2018-07-19T01:35:24.199Z,85.28
2018-07-19T01:36:24.196Z,85.48
2018-07-19T01:37:24.193Z,85.86
2018-07-19T01:38:24.199Z,85.58
2018-07-19T01:39:24.196Z,86.05
2018-07-19T01:40:24.192Z,86.05
2018-07-19T01:41:24.187Z,85.96
2018-07-19T01:42:24.190Z,85.81
2018-07-19T01:43:24.189Z,86.05
2018-07-19T01:44:24.186Z,86.34
2018-07-19T01:45:24.184Z,86.34
2018-07-19T01:46:24.181Z,86.05
2018-07-19T01:47:24.175Z,86.05
2018-07-19T01:48:24.174Z,86.54
2018-07-19T01:49:24.172Z,86.15
2018-07-19T01:50:24.176Z,86.44
2018-07-19T01:51:24.172Z,86.44
2018-07-19T01:52:24.173Z,85.96
2018-07-19T01:53:24.169Z,86.44
2018-07-19T01:54:24.162Z,86.54
2018-07-19T01:55:24.160Z,86.25
2018-07-19T01:56:24.164Z,86.25
2018-07-19T01:57:24.162Z,85.96
2018-07-19T01:58:24.155Z,86.63
2018-07-19T01:59:24.155Z,86.63
2018-07-19T02:00:24.156Z,86.25
2018-07-19T02:01:24.152Z,86.63
2018-07-19T02:02:24.157Z,86.72
2018-07-19T02:03:24.195Z,86.72
2018-07-19T02:04:24.152Z,86.44
2018-07-19T02:05:24.151Z,86.92
2018-07-19T02:06:24.140Z,86.63
2018-07-19T02:07:24.140Z,87.01
2018-07-19T02:08:24.137Z,86.92
2018-07-19T02:09:24.134Z,87.26
2018-07-19T02:10:24.138Z,87.16
2018-07-19T02:11:24.136Z,87.07
2018-07-19T02:12:24.129Z,87.26
2018-07-19T02:13:24.126Z,87.55
2018-07-19T02:14:24.131Z,87.55
2018-07-19T02:15:24.129Z,87.26
2018-07-19T02:16:24.127Z,86.88
2018-07-19T02:17:24.122Z,87.21
2018-07-19T02:18:24.118Z,86.82
2018-07-19T02:19:24.116Z,86.54
2018-07-19T02:20:24.114Z,86.15
2018-07-19T02:21:24.110Z,86.25
2018-07-19T02:22:24.114Z,85.58
2018-07-19T02:23:24.111Z,85.38
2018-07-19T02:24:24.111Z,85.38
2018-07-19T02:25:24.107Z,85.19
2018-07-19T02:26:24.100Z,85.48
2018-07-19T02:27:24.099Z,85.38
2018-07-19T02:28:24.103Z,85.10
2018-07-19T02:29:24.101Z,84.81
2018-07-19T02:30:24.096Z,84.71
2018-07-19T02:31:24.091Z,84.61
2018-07-19T02:32:24.089Z,84.66
2018-07-19T02:33:24.087Z,84.75
2018-07-19T02:34:24.088Z,84.08
2018-07-19T02:35:24.087Z,83.98
2018-07-19T02:36:24.085Z,83.80
2018-07-19T02:37:24.082Z,83.41
2018-07-19T02:38:24.077Z,84.08
2018-07-19T02:39:24.075Z,83.60
2018-07-19T02:40:24.073Z,83.60
2018-07-19T02:41:24.070Z,83.70
2018-07-19T02:42:24.071Z,83.98
2018-07-19T02:43:24.069Z,83.22
2018-07-19T02:44:24.063Z,83.22
2018-07-19T02:45:24.060Z,83.12
2018-07-19T02:46:24.063Z,83.41
2018-07-19T02:47:24.061Z,82.93
2018-07-19T02:48:24.060Z,82.84
2018-07-19T02:49:24.057Z,83.03
2018-07-19T02:50:24.050Z,82.93
2018-07-19T02:51:24.048Z,82.93
2018-07-19T02:52:24.048Z,82.45
2018-07-19T02:53:24.047Z,82.35
2018-07-19T02:54:24.049Z,81.59
2018-07-19T02:55:24.046Z,81.53
2018-07-19T02:56:24.043Z,81.24
2018-07-19T02:57:24.040Z,80.96
2018-07-19T02:58:24.034Z,80.28
2018-07-19T02:59:24.032Z,79.80
2018-07-19T03:00:24.036Z,80.28
2018-07-19T03:01:24.032Z,79.90
2018-07-19T03:02:24.029Z,79.90
2018-07-19T03:03:24.025Z,81.05
2018-07-19T03:04:24.024Z,81.53
2018-07-19T03:05:24.020Z,82.20
2018-07-19T03:06:24.041Z,82.07
2018-07-19T03:07:24.021Z,82.16
2018-07-19T03:08:24.021Z,82.74
2018-07-19T03:09:24.018Z,82.64
2018-07-19T03:10:24.011Z,82.93
2018-07-19T03:11:24.009Z,83.08
2018-07-19T03:12:24.007Z,83.56
2018-07-19T03:13:24.005Z,83.85
2018-07-19T03:14:24.008Z,83.37
2018-07-19T03:15:24.008Z,83.56
2018-07-19T03:16:23.999Z,83.37
2018-07-19T03:17:23.997Z,84.14
2018-07-19T03:18:23.998Z,84.23
2018-07-19T03:19:23.997Z,84.61
2018-07-19T03:20:23.996Z,84.91
2018-07-19T03:21:23.993Z,84.61
2018-07-19T03:22:23.986Z,84.61
2018-07-19T03:23:23.984Z,84.71
2018-07-19T03:24:23.983Z,84.71
2018-07-19T03:25:23.980Z,85.67
2018-07-19T03:26:23.983Z,85.72
2018-07-19T03:27:23.981Z,86.01
2018-07-19T03:28:23.980Z,86.30
2018-07-19T03:29:23.975Z,86.11
2018-07-19T03:30:23.973Z,86.49
2018-07-19T03:31:23.982Z,86.21
2018-07-19T03:32:23.971Z,86.30
2018-07-19T03:33:23.967Z,86.68
2018-07-19T03:34:23.965Z,86.30
2018-07-19T03:35:23.959Z,86.40
2018-07-19T03:36:23.957Z,86.49
2018-07-19T03:37:23.954Z,86.49
2018-07-19T03:38:23.957Z,86.30
2018-07-19T03:39:23.956Z,86.30
2018-07-19T03:40:23.952Z,86.45
2018-07-19T03:41:23.949Z,86.30
2018-07-19T03:42:23.943Z,86.78
2018-07-19T03:43:23.942Z,86.49
2018-07-19T03:44:23.940Z,87.07
2018-07-19T03:45:23.936Z,86.97
2018-07-19T03:46:23.940Z,86.78
2018-07-19T03:47:23.937Z,86.97
2018-07-19T03:48:23.931Z,86.49
2018-07-19T03:49:23.928Z,86.97
2018-07-19T03:50:23.932Z,87.07
2018-07-19T03:51:23.929Z,87.07
2018-07-19T03:52:23.925Z,87.31
2018-07-19T03:53:23.922Z,87.41
2018-07-19T03:54:23.918Z,87.41
2018-07-19T03:55:23.915Z,87.60
2018-07-19T03:56:23.913Z,88.08
2018-07-19T03:57:23.909Z,88.08
2018-07-19T03:58:23.911Z,88.08
2018-07-19T03:59:23.909Z,87.88
2018-07-19T04:00:23.908Z,88.17
2018-07-19T04:01:23.905Z,87.41
2018-07-19T04:02:23.901Z,87.41
2018-07-19T04:03:23.895Z,88.22
2018-07-19T04:04:23.899Z,87.55
2018-07-19T04:05:23.895Z,87.70
2018-07-19T04:06:23.889Z,87.45
2018-07-19T04:07:23.887Z,87.16
2018-07-19T04:08:23.884Z,87.07
2018-07-19T04:09:23.880Z,86.97
2018-07-19T04:10:23.884Z,87.16
2018-07-19T04:11:23.881Z,86.49
2018-07-19T04:12:23.879Z,86.58
2018-07-19T04:13:23.874Z,86.21
2018-07-19T04:14:23.869Z,86.49
2018-07-19T04:15:23.866Z,86.21
2018-07-19T04:16:23.866Z,85.82
2018-07-19T04:17:23.862Z,86.01
2018-07-19T04:18:23.865Z,86.49
2018-07-19T04:19:23.865Z,85.82
2018-07-19T04:20:23.857Z,85.86
2018-07-19T04:21:23.852Z,85.82
2018-07-19T04:22:23.855Z,86.25
2018-07-19T04:23:23.854Z,86.25
2018-07-19T04:24:23.854Z,85.77
2018-07-19T04:25:23.849Z,86.25
2018-07-19T04:26:23.841Z,85.86
2018-07-19T04:27:23.839Z,85.96
2018-07-19T04:28:23.838Z,86.44
2018-07-19T04:29:23.834Z,86.05
2018-07-19T04:30:23.837Z,85.86
2018-07-19T04:31:23.834Z,86.05
2018-07-19T04:32:23.836Z,85.77
2018-07-19T04:33:23.833Z,85.86
2018-07-19T04:34:23.825Z,85.48
2018-07-19T04:35:23.821Z,85.48
2018-07-19T04:36:23.825Z,85.58
2018-07-19T04:37:23.823Z,85.19
2018-07-19T04:38:23.819Z,84.91
2018-07-19T04:39:23.814Z,84.56
2018-07-19T04:40:23.812Z,84.75
2018-07-19T04:41:23.809Z,84.56
2018-07-19T04:42:23.812Z,84.85
2018-07-19T04:43:23.810Z,83.98
2018-07-19T04:44:23.810Z,84.18
2018-07-19T04:45:23.808Z,84.08
2018-07-19T04:46:23.800Z,83.98
2018-07-19T04:47:23.799Z,84.31
2018-07-19T04:48:23.821Z,83.84
2018-07-19T04:49:23.796Z,83.74
2018-07-19T04:50:23.797Z,83.74
2018-07-19T04:51:23.800Z,83.74
2018-07-19T04:52:23.791Z,83.45
2018-07-19T04:53:23.789Z,83.64
2018-07-19T04:54:23.792Z,83.69
2018-07-19T04:55:23.790Z,83.30
2018-07-19T04:56:23.790Z,83.01
2018-07-19T04:57:23.788Z,82.92
2018-07-19T04:58:23.783Z,82.86
2018-07-19T04:59:23.781Z,83.06
2018-07-19T05:00:23.781Z,82.48
2018-07-19T05:01:23.780Z,82.52
2018-07-19T05:02:23.783Z,81.56
2018-07-19T05:03:23.786Z,80.88
2018-07-19T05:04:23.782Z,80.54
2018-07-19T05:05:23.780Z,80.06
2018-07-19T05:06:23.777Z,79.33
2018-07-19T05:07:23.776Z,79.52
2018-07-19T05:08:23.781Z,78.31
2018-07-19T05:09:23.781Z,77.92
2018-07-19T05:10:23.776Z,77.00
2018-07-19T05:11:23.779Z,75.26
2018-07-19T05:12:23.779Z,74.58
2018-07-19T05:13:23.782Z,74.14
2018-07-19T05:14:23.785Z,73.47
2018-07-19T05:15:23.786Z,72.99
2018-07-19T05:16:23.788Z,73.37
2018-07-19T05:17:23.788Z,73.18
2018-07-19T05:18:23.785Z,73.75
2018-07-19T05:19:23.785Z,73.85
2018-07-19T05:20:23.786Z,74.05
2018-07-19T05:21:23.791Z,74.37
2018-07-19T05:22:23.793Z,74.27
2018-07-19T05:23:23.797Z,74.08
2018-07-19T05:24:23.793Z,74.27
2018-07-19T05:25:23.792Z,75.34
2018-07-19T05:26:23.798Z,74.85
2018-07-19T05:27:23.799Z,74.95
2018-07-19T05:28:23.803Z,74.95
2018-07-19T05:29:23.802Z,75.05
2018-07-19T05:30:23.800Z,75.72
2018-07-19T05:31:23.800Z,75.43
2018-07-19T05:32:23.803Z,76.68
2018-07-19T05:33:23.804Z,76.50
2018-07-19T05:34:23.810Z,76.88
2018-07-19T05:35:23.812Z,77.26
2018-07-19T05:36:23.811Z,75.82
2018-07-19T05:37:23.811Z,76.20
2018-07-19T05:38:23.810Z,76.50
2018-07-19T05:39:23.810Z,77.07
2018-07-19T05:40:23.846Z,76.88
2018-07-19T05:41:23.817Z,76.43
2018-07-19T05:42:23.845Z,75.76
2018-07-19T05:43:23.815Z,75.57
2018-07-19T05:44:23.818Z,75.47
2018-07-19T05:45:23.817Z,75.47
2018-07-19T05:46:23.825Z,75.09
2018-07-19T05:47:23.827Z,73.96
2018-07-19T05:48:23.828Z,72.90
2018-07-19T05:49:23.831Z,73.00
2018-07-19T05:50:23.825Z,71.97
2018-07-19T05:51:23.827Z,70.90
2018-07-19T05:52:23.829Z,70.52
2018-07-19T05:53:23.829Z,69.74
2018-07-19T05:54:23.836Z,69.68
2018-07-19T05:55:23.838Z,68.82
2018-07-19T05:56:23.836Z,69.72
2018-07-19T05:57:23.836Z,70.20
2018-07-19T05:58:23.843Z,69.62
2018-07-19T05:59:23.845Z,68.08
2018-07-19T06:00:23.850Z,67.91
2018-07-19T06:01:23.848Z,67.63
2018-07-19T06:02:23.846Z,67.24
2018-07-19T06:03:23.849Z,67.14
2018-07-19T06:04:23.851Z,65.40
2018-07-19T06:05:23.853Z,63.56
2018-07-19T06:06:23.861Z,63.27
2018-07-19T06:07:23.863Z,63.89
2018-07-19T06:08:23.866Z,63.59
2018-07-19T06:09:23.869Z,64.95
2018-07-19T06:10:23.865Z,66.02
2018-07-19T06:11:23.866Z,66.50
2018-07-19T06:12:23.874Z,65.63
2018-07-19T06:13:23.875Z,63.98
2018-07-19T06:14:23.873Z,63.40
2018-07-19T06:15:23.877Z,63.11
2018-07-19T06:16:23.880Z,62.11
2018-07-19T06:17:23.885Z,61.82
2018-07-19T06:18:23.890Z,61.33
2018-07-19T06:19:23.892Z,61.92
2018-07-19T06:20:23.896Z,61.11
2018-07-19T06:21:23.897Z,61.60
2018-07-19T06:22:23.896Z,61.37
2018-07-19T06:23:23.899Z,61.95
2018-07-19T06:24:23.903Z,62.24
2018-07-19T06:25:23.904Z,62.02
2018-07-19T06:26:23.912Z,62.40
2018-07-19T06:27:23.917Z,62.79
2018-07-19T06:28:23.925Z,63.66
2018-07-19T06:29:23.915Z,63.56
2018-07-19T06:30:23.924Z,63.95
2018-07-19T06:31:23.927Z,63.85
2018-07-19T06:32:23.930Z,63.21
2018-07-19T06:33:23.933Z,63.79
2018-07-19T06:34:23.930Z,63.21
2018-07-19T06:35:23.933Z,63.40
2018-07-19T06:36:23.936Z,62.63
2018-07-19T06:37:23.937Z,62.05
2018-07-19T06:38:23.945Z,62.66
2018-07-19T06:39:23.951Z,61.98
2018-07-19T06:40:23.951Z,61.50
2018-07-19T06:41:23.953Z,62.56
2018-07-19T06:42:23.952Z,61.40
2018-07-19T06:43:23.957Z,60.92
2018-07-19T06:44:23.966Z,60.05
2018-07-19T06:45:23.964Z,60.66
2018-07-19T06:46:23.963Z,59.94
2018-07-19T06:47:23.967Z,59.30
2018-07-19T06:48:23.970Z,58.45
2018-07-19T06:49:23.979Z,57.54
2018-07-19T06:50:23.984Z,56.25
2018-07-19T06:51:23.985Z,55.79
2018-07-19T06:52:23.990Z,54.75
2018-07-19T06:53:23.991Z,54.24
2018-07-19T06:54:23.992Z,54.21
2018-07-19T06:55:23.996Z,54.84
2018-07-19T06:56:24.000Z,55.78
2018-07-19T06:57:24.044Z,55.78
2018-07-19T06:58:24.014Z,57.11
2018-07-19T06:59:24.019Z,57.30
2018-07-19T07:00:24.019Z,57.88
2018-07-19T07:01:24.022Z,58.24
2018-07-19T07:02:24.034Z,58.82
2018-07-19T07:03:24.037Z,59.05
2018-07-19T07:04:24.042Z,58.33
2018-07-19T07:05:24.046Z,57.39
2018-07-19T07:06:24.047Z,55.99
2018-07-19T07:07:24.052Z,54.52
2018-07-19T07:08:24.058Z,53.11
2018-07-19T07:09:24.062Z,51.60
2018-07-19T07:10:24.074Z,51.79
2018-07-19T07:11:24.078Z,51.26
2018-07-19T07:12:24.086Z,50.51
2018-07-19T07:13:24.091Z,49.46
2018-07-19T07:14:24.093Z,49.10
2018-07-19T07:15:24.099Z,49.85
2018-07-19T07:16:24.111Z,50.80
2018-07-19T07:17:24.116Z,50.73
2018-07-19T07:18:24.118Z,51.18
2018-07-19T07:19:24.124Z,51.40
2018-07-19T07:20:24.131Z,51.31
2018-07-19T07:21:24.137Z,51.60
2018-07-19T07:22:24.148Z,51.48
2018-07-19T07:23:24.156Z,51.45
2018-07-19T07:24:24.162Z,52.33
2018-07-19T07:25:24.168Z,52.52
2018-07-19T07:26:24.171Z,53.08
2018-07-19T07:27:24.178Z,53.00
2018-07-19T07:28:24.264Z,52.91
2018-07-19T07:29:24.188Z,52.62
2018-07-19T07:30:24.199Z,52.94
2018-07-19T07:31:24.206Z,53.22
2018-07-19T07:32:24.208Z,52.42
2018-07-19T07:33:24.218Z,51.87
2018-07-19T07:34:24.224Z,52.76
2018-07-19T07:35:24.230Z,52.15
2018-07-19T07:36:24.234Z,52.67
2018-07-19T07:37:24.242Z,51.77
2018-07-19T07:38:24.243Z,52.28
2018-07-19T07:39:24.248Z,51.87
2018-07-19T07:40:24.254Z,50.56
2018-07-19T07:41:24.260Z,49.39
2018-07-19T07:42:24.271Z,48.29
2018-07-19T07:43:24.278Z,48.73
2018-07-19T07:44:24.285Z,49.49
2018-07-19T07:45:24.291Z,49.58
2018-07-19T07:46:24.295Z,49.85
2018-07-19T07:47:24.300Z,50.31
2018-07-19T07:48:24.315Z,50.60
2018-07-19T07:49:24.318Z,51.06
2018-07-19T07:50:24.320Z,51.59
2018-07-19T07:51:24.327Z,52.20
2018-07-19T07:52:24.334Z,52.59
2018-07-19T07:53:24.339Z,52.50
2018-07-19T07:54:24.352Z,52.50
2018-07-19T07:55:24.359Z,52.62
2018-07-19T07:56:24.366Z,53.59
2018-07-19T07:57:24.374Z,53.32
2018-07-19T07:58:24.374Z,52.45
2018-07-19T07:59:24.395Z,55.10
2018-07-19T08:00:24.438Z,57.56
2018-07-19T08:01:24.392Z,57.49
2018-07-19T08:02:24.403Z,54.08
2018-07-19T08:03:24.413Z,52.25
2018-07-19T08:04:24.412Z,53.22
2018-07-19T08:05:24.422Z,54.61
2018-07-19T08:06:24.431Z,53.59
2018-07-19T08:07:24.435Z,53.01
2018-07-19T08:08:24.442Z,53.33
2018-07-19T08:09:24.447Z,51.45
2018-07-19T08:10:24.448Z,52.62
2018-07-19T08:11:24.456Z,52.72
2018-07-19T08:12:24.461Z,52.94
2018-07-19T08:13:24.467Z,51.62
2018-07-19T08:14:24.479Z,51.23
2018-07-19T08:15:24.485Z,51.92
2018-07-19T08:16:24.490Z,52.72
2018-07-19T08:17:24.498Z,52.79
2018-07-19T08:18:24.497Z,52.14
2018-07-19T08:19:24.504Z,53.99
2018-07-19T08:20:24.518Z,51.67
2018-07-19T08:21:24.521Z,50.68
2018-07-19T08:22:24.523Z,49.97
2018-07-19T08:23:24.529Z,50.16
2018-07-19T08:24:24.536Z,50.34
2018-07-19T08:25:24.542Z,50.53
2018-07-19T08:26:24.564Z,50.53
2018-07-19T08:27:24.559Z,50.73
2018-07-19T08:28:24.565Z,50.70
2018-07-19T08:29:24.571Z,49.34
2018-07-19T08:30:24.572Z,46.63
2018-07-19T08:31:24.578Z,46.44
2018-07-19T08:32:24.597Z,45.39
2018-07-19T08:33:24.590Z,45.41
2018-07-19T08:34:24.607Z,44.16
2018-07-19T08:35:24.610Z,43.66
2018-07-19T08:36:24.614Z,41.99
2018-07-19T08:37:24.620Z,41.88
2018-07-19T08:38:24.632Z,41.33
2018-07-19T08:39:24.641Z,41.96
2018-07-19T08:40:24.651Z,42.36
2018-07-19T08:41:24.659Z,41.03
2018-07-19T08:42:24.666Z,40.37
2018-07-19T08:43:24.673Z,39.01
2018-07-19T08:44:24.682Z,38.75
2018-07-19T08:45:24.691Z,40.00
2018-07-19T08:46:24.708Z,40.68
2018-07-19T08:47:24.727Z,40.23
2018-07-19T08:48:24.728Z,40.14
2018-07-19T08:49:24.738Z,40.97
2018-07-19T08:50:24.745Z,42.07
2018-07-19T08:51:24.757Z,42.76
2018-07-19T08:52:24.773Z,43.13
2018-07-19T08:53:24.783Z,42.93
2018-07-19T08:54:24.789Z,43.24
2018-07-19T08:55:24.801Z,43.19
2018-07-19T08:56:24.847Z,41.14
2018-07-19T08:57:24.824Z,40.23
2018-07-19T08:58:24.840Z,39.66
2018-07-19T08:59:24.853Z,37.76
2018-07-19T09:00:24.863Z,35.88
2018-07-19T09:01:24.880Z,37.40
2018-07-19T09:02:24.930Z,35.91
2018-07-19T09:03:24.896Z,36.30
2018-07-19T09:04:24.911Z,35.74
2018-07-19T09:05:24.921Z,35.26
2018-07-19T09:06:24.941Z,36.13
2018-07-19T09:07:24.954Z,36.62
2018-07-19T09:08:24.965Z,36.26
2018-07-19T09:09:24.977Z,35.30
2018-07-19T09:10:24.995Z,36.16
2018-07-19T09:11:25.010Z,36.34
2018-07-19T09:12:25.024Z,35.97
2018-07-19T09:13:25.038Z,35.05
2018-07-19T09:14:25.060Z,34.67
2018-07-19T09:15:25.063Z,35.57
2018-07-19T09:16:25.077Z,34.94
2018-07-19T09:17:25.110Z,33.54
2018-07-19T09:18:25.109Z,33.62
2018-07-19T09:19:25.146Z,34.18
2018-07-19T09:20:25.145Z,34.87
2018-07-19T09:21:25.157Z,34.89
2018-07-19T09:22:25.167Z,34.92
2018-07-19T09:23:25.181Z,33.58
2018-07-19T09:24:25.201Z,33.64
2018-07-19T09:25:25.215Z,33.38
2018-07-19T09:26:25.226Z,33.20
2018-07-19T09:27:25.243Z,32.32
2018-07-19T09:28:25.257Z,33.00
2018-07-19T09:29:25.272Z,33.58
2018-07-19T09:30:25.292Z,35.10
2018-07-19T09:31:25.308Z,34.43
2018-07-19T09:32:25.323Z,33.82
2018-07-19T09:33:25.340Z,34.54
2018-07-19T09:34:25.352Z,32.82
2018-07-19T09:35:25.367Z,31.96
2018-07-19T09:36:25.384Z,31.29
2018-07-19T09:37:25.399Z,30.13
2018-07-19T09:38:25.508Z,29.23
2018-07-19T09:39:25.473Z,29.33
2018-07-19T09:40:25.448Z,27.75
2018-07-19T09:41:25.464Z,28.53
2018-07-19T09:42:25.485Z,27.58
2018-07-19T09:43:25.525Z,27.66
2018-07-19T09:44:25.520Z,28.45
2018-07-19T09:45:25.535Z,28.72
2018-07-19T09:46:25.548Z,28.41
2018-07-19T09:47:25.568Z,28.51
2018-07-19T09:48:25.581Z,29.57
2018-07-19T09:49:25.598Z,30.75
2018-07-19T09:50:25.619Z,31.21
2018-07-19T09:51:25.636Z,29.41
2018-07-19T09:52:25.655Z,30.79
2018-07-19T09:53:25.672Z,30.44
2018-07-19T09:54:25.682Z,29.31
2018-07-19T09:55:25.703Z,28.96
2018-07-19T09:56:25.722Z,28.95
2018-07-19T09:57:25.739Z,30.02
2018-07-19T09:58:25.750Z,31.20
2018-07-19T09:59:25.799Z,30.31
2018-07-19T10:00:25.791Z,30.40
2018-07-19T10:01:25.801Z,28.83
2018-07-19T10:02:25.822Z,28.13
2018-07-19T10:03:25.839Z,28.99
2018-07-19T10:04:25.859Z,31.48
2018-07-19T10:05:25.875Z,32.78
2018-07-19T10:06:25.891Z,30.95
2018-07-19T10:07:25.905Z,30.59
2018-07-19T10:08:25.920Z,29.14
2018-07-19T10:09:25.935Z,27.96
2018-07-19T10:10:25.958Z,28.55
2018-07-19T10:11:25.975Z,28.89
2018-07-19T10:12:25.986Z,30.63
2018-07-19T10:13:26.011Z,29.97
2018-07-19T10:14:26.024Z,29.11
2018-07-19T10:15:26.072Z,29.03
2018-07-19T10:16:26.059Z,28.75
2018-07-19T10:17:26.135Z,29.48
2018-07-19T10:18:26.087Z,29.92
2018-07-19T10:19:26.102Z,29.93
2018-07-19T10:20:26.118Z,28.65
2018-07-19T10:21:26.135Z,28.05
2018-07-19T10:22:26.157Z,27.10
2018-07-19T10:23:26.175Z,27.75
2018-07-19T10:24:26.208Z,28.65
2018-07-19T10:25:26.204Z,30.40
2018-07-19T10:26:26.218Z,31.99
2018-07-19T10:27:26.235Z,32.78
2018-07-19T10:28:26.256Z,31.40
2018-07-19T10:29:26.272Z,32.01
2018-07-19T10:30:26.284Z,32.21
2018-07-19T10:31:26.300Z,30.69
2018-07-19T10:32:26.392Z,29.13
2018-07-19T10:33:26.335Z,28.66
2018-07-19T10:34:26.446Z,29.03
2018-07-19T10:35:26.373Z,28.58
2018-07-19T10:36:26.389Z,29.23
2018-07-19T10:37:26.407Z,28.58
2018-07-19T10:38:26.465Z,27.69
2018-07-19T10:39:26.435Z,26.71
2018-07-19T10:40:26.455Z,28.44
2018-07-19T10:41:26.471Z,27.67
2018-07-19T10:42:26.491Z,27.14
2018-07-19T10:43:26.506Z,27.84
2018-07-19T10:44:26.525Z,29.09
2018-07-19T10:45:26.540Z,30.04
2018-07-19T10:46:26.557Z,31.51
2018-07-19T10:47:26.573Z,32.45
2018-07-19T10:48:26.592Z,32.87
2018-07-19T10:49:26.607Z,31.87
2018-07-19T10:50:26.619Z,31.02
2018-07-19T10:51:26.635Z,31.64
2018-07-19T10:52:26.652Z,30.17
2018-07-19T10:53:26.668Z,30.05
2018-07-19T10:54:26.690Z,30.24
2018-07-19T10:55:26.707Z,30.91
2018-07-19T10:56:26.723Z,31.50
2018-07-19T10:57:26.784Z,32.90
2018-07-19T10:58:26.752Z,32.23
2018-07-19T10:59:26.766Z,30.60
2018-07-19T11:00:26.786Z,29.13
2018-07-19T11:01:26.803Z,28.91
2018-07-19T11:02:26.814Z,29.10
2018-07-19T11:03:26.830Z,31.02
2018-07-19T11:04:26.850Z,32.12
2018-07-19T11:05:26.863Z,32.53
2018-07-19T11:06:26.883Z,31.98
2018-07-19T11:07:26.900Z,31.18
2018-07-19T11:08:26.914Z,30.24
2018-07-19T11:09:26.984Z,30.32
2018-07-19T11:10:26.945Z,29.93
2018-07-19T11:11:26.959Z,28.78
2018-07-19T11:12:26.976Z,29.19
2018-07-19T11:13:26.991Z,28.28
2018-07-19T11:14:27.016Z,29.51
2018-07-19T11:15:27.030Z,28.86
2018-07-19T11:16:27.059Z,30.71
2018-07-19T11:17:27.056Z,30.70
2018-07-19T11:18:27.078Z,33.20
2018-07-19T11:19:27.094Z,34.38
2018-07-19T11:20:27.110Z,33.62
2018-07-19T11:21:27.123Z,33.08
2018-07-19T11:22:27.135Z,32.68
2018-07-19T11:23:27.149Z,31.58
2018-07-19T11:24:27.164Z,31.77
2018-07-19T11:25:27.178Z,31.86
2018-07-19T11:26:27.198Z,32.06
2018-07-19T11:27:27.211Z,32.27
2018-07-19T11:28:27.247Z,30.90
2018-07-19T11:29:27.238Z,30.96
2018-07-19T11:30:27.246Z,31.73
2018-07-19T11:31:27.260Z,31.65
2018-07-19T11:32:27.278Z,32.12
2018-07-19T11:33:27.289Z,32.03
2018-07-19T11:34:27.296Z,32.27
2018-07-19T11:35:27.309Z,34.01
2018-07-19T11:36:27.321Z,34.31
2018-07-19T11:37:27.331Z,34.23
2018-07-19T11:38:27.349Z,33.61
2018-07-19T11:39:27.382Z,34.68
2018-07-19T11:40:27.368Z,35.28
2018-07-19T11:41:27.384Z,36.05
2018-07-19T11:42:27.384Z,36.73
2018-07-19T11:43:27.394Z,37.52
2018-07-19T11:44:27.405Z,37.21
2018-07-19T11:45:27.422Z,37.32
2018-07-19T11:46:27.427Z,36.05
2018-07-19T11:47:27.437Z,35.28
2018-07-19T11:48:27.442Z,35.21
2018-07-19T11:49:27.450Z,35.68
2018-07-19T11:50:27.467Z,35.30
2018-07-19T11:51:27.471Z,34.05
2018-07-19T11:52:27.480Z,33.33
2018-07-19T11:53:27.487Z,33.70
2018-07-19T11:54:27.492Z,33.98
2018-07-19T11:55:27.499Z,34.57
2018-07-19T11:56:27.508Z,35.74
2018-07-19T11:57:27.518Z,35.66
2018-07-19T11:58:27.528Z,35.28
2018-07-19T11:59:27.535Z,34.41
2018-07-19T12:00:27.544Z,33.15
2018-07-19T12:01:27.572Z,34.11
2018-07-19T12:02:27.557Z,34.99
2018-07-19T12:03:27.565Z,35.66
2018-07-19T12:04:27.576Z,35.94
2018-07-19T12:05:27.581Z,37.09
2018-07-19T12:06:27.584Z,36.13
2018-07-19T12:07:27.593Z,36.99
2018-07-19T12:08:27.600Z,37.11
2018-07-19T12:09:27.606Z,37.50
2018-07-19T12:10:27.618Z,38.84
2018-07-19T12:11:27.626Z,38.57
2018-07-19T12:12:27.634Z,38.48
2018-07-19T12:13:27.641Z,38.65
2018-07-19T12:14:27.643Z,38.94
2018-07-19T12:15:27.651Z,39.92
2018-07-19T12:16:27.656Z,40.29
2018-07-19T12:17:27.663Z,40.97
2018-07-19T12:18:27.674Z,41.66
2018-07-19T12:19:27.683Z,41.66
2018-07-19T12:20:27.684Z,41.63
2018-07-19T12:21:27.691Z,41.25
2018-07-19T12:22:27.702Z,41.83
2018-07-19T12:23:27.709Z,42.14
2018-07-19T12:24:27.717Z,42.05
2018-07-19T12:25:27.724Z,41.38
2018-07-19T12:26:27.725Z,40.41
2018-07-19T12:27:27.732Z,40.97
2018-07-19T12:28:27.742Z,41.66
2018-07-19T12:29:27.745Z,40.01
2018-07-19T12:30:27.757Z,38.34
2018-07-19T12:31:27.763Z,36.98
2018-07-19T12:32:27.770Z,36.86
2018-07-19T12:33:27.777Z,37.45
2018-07-19T12:34:27.782Z,37.05
2018-07-19T12:35:27.788Z,37.25
2018-07-19T12:36:27.796Z,36.66
2018-07-19T12:37:27.803Z,36.37
2018-07-19T12:38:27.805Z,37.05
2018-07-19T12:39:27.811Z,39.00
2018-07-19T12:40:27.820Z,39.78
2018-07-19T12:41:27.824Z,41.25
2018-07-19T12:42:27.834Z,41.61
2018-07-19T12:43:27.842Z,41.93
2018-07-19T12:44:27.847Z,42.71
2018-07-19T12:45:27.855Z,41.63
2018-07-19T12:46:27.855Z,40.29
2018-07-19T12:47:27.862Z,41.07
2018-07-19T12:48:27.867Z,42.22
2018-07-19T12:49:27.873Z,39.02
2018-07-19T12:50:27.884Z,37.57
2018-07-19T12:51:27.891Z,37.19
2018-07-19T12:52:27.893Z,35.45